Bookmark and Share
Track history (hours):
 

Eastern Asia

Last reported at 2014-Apr-23 07:33 UTC. Time now 2014-Apr-24 11:32 UTC.
Position N 46°12' W 125°22'.

Length 175 m; draft 10.4 m.

Type: Cargo ship. MMSI: 355530000.

NotesDate/timePositionNaut miles runAvg speedWind from/ knotsBaromVisibWave heightAir tempDewpointWater temp
2014-Apr-23 07:33N 46°12' W 125°22'10 9.6
2014-Apr-23 06:33N 46°12' W 125°08'10 9.5
2014-Apr-23 05:33N 46°12' W 124°54'13 9.5
2014-Apr-23 04:13N 46°12' W 124°36'6 9.5
2014-Apr-23 03:33N 46°12' W 124°27'9 9.3
2014-Apr-23 02:34N 46°12' W 124°13'9 9.3
2014-Apr-23 01:34N 46°15' W 124°01'10 9.6
2014-Apr-23 00:34N 46°12' W 123°48'1212.4
2014-Apr-22 23:34N 46°16' W 123°30'1110.6
2014-Apr-22 22:34N 46°09' W 123°20'1313.2
2014-Apr-22 21:33N 46°08' W 123°01'3 3.4
2014-Apr-22 20:32N 46°06' W 122°57'0 0.0
2014-Apr-22 19:11N 46°06' W 122°57'0 0.0
2014-Apr-22 18:32N 46°06' W 122°57'0 0.0
2014-Apr-22 17:32N 46°06' W 122°57'0 0.0
2014-Apr-22 16:32N 46°06' W 122°57'0 0.0
2014-Apr-22 15:29N 46°06' W 122°57'0 0.0
2014-Apr-22 14:08N 46°06' W 122°57'0 0.0
2014-Apr-22 13:32N 46°06' W 122°57'0 0.0
2014-Apr-22 12:26N 46°06' W 122°57'0 0.0
2014-Apr-22 11:32N 46°06' W 122°57'0 0.0
2014-Apr-22 10:26N 46°06' W 122°57'0 0.0
2014-Apr-22 09:32N 46°06' W 122°57'0 0.0
2014-Apr-22 08:32N 46°06' W 122°57'0 0.0
2014-Apr-22 07:32N 46°06' W 122°57'0 0.0
2014-Apr-22 06:32N 46°06' W 122°57'0 0.0
2014-Apr-22 05:32N 46°06' W 122°57'0 0.0
2014-Apr-22 04:26N 46°06' W 122°57'0 0.0
2014-Apr-22 03:32N 46°06' W 122°57'0 0.0
2014-Apr-22 02:32N 46°06' W 122°57'0 0.0
2014-Apr-22 01:32N 46°06' W 122°57'0 0.0
2014-Apr-22 00:32N 46°06' W 122°57'0 0.0
2014-Apr-21 23:29N 46°06' W 122°57'0 0.0
2014-Apr-21 22:32N 46°06' W 122°57'0 0.0
2014-Apr-21 21:32N 46°06' W 122°57'0 0.0
2014-Apr-21 20:32N 46°06' W 122°57'0 0.0
2014-Apr-21 19:32N 46°06' W 122°57'0 0.0
2014-Apr-21 18:32N 46°06' W 122°57'0 0.0
2014-Apr-21 17:32N 46°06' W 122°57'0 0.0
2014-Apr-21 16:32N 46°06' W 122°57'0 0.0
2014-Apr-21 15:32N 46°06' W 122°57'0 0.0
2014-Apr-21 14:32N 46°06' W 122°57'0 0.0
2014-Apr-21 13:32N 46°06' W 122°57'0 0.0
2014-Apr-21 12:32N 46°06' W 122°57'0 0.0
2014-Apr-21 11:32N 46°06' W 122°57'0 0.0
2014-Apr-21 10:32N 46°06' W 122°57'0 0.0
2014-Apr-21 09:32N 46°06' W 122°57'0 0.0
2014-Apr-21 08:32N 46°06' W 122°57'0 0.0
2014-Apr-21 07:32N 46°06' W 122°57'0 0.0
2014-Apr-21 06:32N 46°06' W 122°57'0 0.0
2014-Apr-21 05:32N 46°06' W 122°57'0 0.0
2014-Apr-21 04:32N 46°06' W 122°57'0 0.0
2014-Apr-21 03:32N 46°06' W 122°57'0 0.0
2014-Apr-21 02:32N 46°06' W 122°57'0 0.0
2014-Apr-21 01:32N 46°06' W 122°57'0 0.0
2014-Apr-21 00:32N 46°06' W 122°57'0 0.0
2014-Apr-20 23:32N 46°06' W 122°57'0 0.0
2014-Apr-20 22:32N 46°06' W 122°57'0 0.0
2014-Apr-20 21:32N 46°06' W 122°57'0 0.0
2014-Apr-20 20:29N 46°06' W 122°57'0 0.0
2014-Apr-20 19:32N 46°06' W 122°57'0 0.0
2014-Apr-20 18:32N 46°06' W 122°57'0 0.0
2014-Apr-20 17:32N 46°06' W 122°57'0 0.0
2014-Apr-20 16:32N 46°06' W 122°57'0 0.0
2014-Apr-20 15:32N 46°06' W 122°57'0 0.0
2014-Apr-20 14:32N 46°06' W 122°57'0 0.0
2014-Apr-20 13:29N 46°06' W 122°57'0 0.0
2014-Apr-20 12:29N 46°06' W 122°57'0 0.0
2014-Apr-20 11:32N 46°06' W 122°57'0 0.0
2014-Apr-20 10:32N 46°06' W 122°57'0 0.0
2014-Apr-20 09:32N 46°06' W 122°57'0 0.0
2014-Apr-20 08:32N 46°06' W 122°57'0 0.0
2014-Apr-20 07:32N 46°06' W 122°57'0 0.0
2014-Apr-20 06:32N 46°06' W 122°57'0 0.0
2014-Apr-20 05:32N 46°06' W 122°57'0 0.0
2014-Apr-20 04:32N 46°06' W 122°57'0 0.0
2014-Apr-20 03:32N 46°06' W 122°57'0 0.0
2014-Apr-20 02:32N 46°06' W 122°57'0 0.0
2014-Apr-20 01:32N 46°06' W 122°57'0 0.0
2014-Apr-20 00:32N 46°06' W 122°57'0 0.0
2014-Apr-19 23:32N 46°06' W 122°57'0 0.0
2014-Apr-19 22:32N 46°06' W 122°57'0 0.0
2014-Apr-19 21:32N 46°06' W 122°57'0 0.0
2014-Apr-19 20:32N 46°06' W 122°57'0 0.0
2014-Apr-19 19:32N 46°06' W 122°57'0 0.0
2014-Apr-19 18:32N 46°06' W 122°57'0 0.0
2014-Apr-19 17:32N 46°06' W 122°57'0 0.0
2014-Apr-19 16:32N 46°06' W 122°57'0 0.0
2014-Apr-19 15:32N 46°06' W 122°57'0 0.0
2014-Apr-19 14:32N 46°06' W 122°57'0 0.0
2014-Apr-19 13:32N 46°06' W 122°57'0 0.0
2014-Apr-19 12:32N 46°06' W 122°57'0 0.0
2014-Apr-19 11:32N 46°06' W 122°57'3 2.9
2014-Apr-19 10:33N 46°08' W 123°00'1110.6
2014-Apr-19 09:33N 46°09' W 123°15'9 9.1
2014-Apr-19 08:33N 46°15' W 123°26'1211.8
2014-Apr-19 07:33N 46°14' W 123°43'10 9.8
2014-Apr-19 06:33N 46°13' W 123°57'1010.0
2014-Apr-19 05:33N 46°13' W 124°11'1211.9
2014-Apr-19 04:33N 46°21' W 124°24'1313.4
2014-Apr-19 03:33N 46°33' W 124°32'1313.5
2014-Apr-19 02:34N 46°46' W 124°40'1414.1
2014-Apr-19 01:34N 46°59' W 124°48'1814.0
2014-Apr-19 00:18N 47°14' W 124°59'6610.7
2014-Apr-18 18:06N 48°19' W 125°23'610.7
2014-Apr-18 17:33N 48°22' W 125°16'1111.2
2014-Apr-18 16:32N 48°29' W 125°03'1110.7
2014-Apr-18 15:33N 48°30' W 124°47'1111.0
2014-Apr-18 14:33N 48°27' W 124°31'1111.1
2014-Apr-18 13:33N 48°23' W 124°16'1110.6
2014-Apr-18 12:33N 48°19' W 124°01'1110.7
2014-Apr-18 11:33N 48°16' W 123°45'1010.0
2014-Apr-18 10:33N 48°16' W 123°30'9 9.0
2014-Apr-18 09:33N 48°23' W 123°22'1010.5
2014-Apr-18 08:33N 48°31' W 123°13'1312.6
2014-Apr-18 07:33N 48°44' W 123°09'10 9.9
2014-Apr-18 06:33N 48°53' W 123°08'1514.9
2014-Apr-18 05:33N 49°03' W 123°25'1515.1
2014-Apr-18 04:33N 49°12' W 123°43'9 8.2
2014-Apr-18 03:31N 49°10' W 123°55'0 0.0
2014-Apr-18 02:31N 49°10' W 123°55'0 0.0
2014-Apr-18 01:31N 49°10' W 123°55'0 0.0
2014-Apr-18 00:31N 49°10' W 123°55'0 0.0
2014-Apr-17 23:31N 49°10' W 123°55'0 0.0
2014-Apr-17 22:31N 49°10' W 123°55'0 0.0
2014-Apr-17 21:31N 49°10' W 123°55'0 0.0
2014-Apr-17 20:28N 49°10' W 123°55'0 0.0
2014-Apr-17 19:31N 49°10' W 123°55'0 0.0
2014-Apr-17 18:31N 49°10' W 123°55'0 0.0
2014-Apr-17 17:31N 49°10' W 123°55'0 0.0
2014-Apr-17 16:31N 49°10' W 123°55'0 0.0
2014-Apr-17 15:28N 49°10' W 123°55'0 0.0
2014-Apr-17 14:28N 49°10' W 123°55'0 0.0
2014-Apr-17 13:28N 49°10' W 123°55'0 0.0
2014-Apr-17 12:31N 49°10' W 123°55'0 0.0
2014-Apr-17 11:31N 49°10' W 123°55'0 0.0
2014-Apr-17 10:31N 49°10' W 123°55'0 0.0
2014-Apr-17 09:31N 49°10' W 123°55'0 0.0
2014-Apr-17 08:31N 49°10' W 123°55'0 0.0
2014-Apr-17 07:31N 49°10' W 123°55'0 0.0
2014-Apr-17 06:31N 49°10' W 123°55'0 0.0
2014-Apr-17 05:31N 49°10' W 123°55'0 0.0
2014-Apr-17 04:31N 49°10' W 123°55'0 0.0
2014-Apr-17 03:31N 49°10' W 123°55'0 0.0
2014-Apr-17 02:31N 49°10' W 123°55'0 0.0
2014-Apr-17 01:31N 49°10' W 123°55'0 0.0
2014-Apr-17 00:31N 49°10' W 123°55'0 0.0
2014-Apr-16 23:31N 49°10' W 123°55'0 0.0
2014-Apr-16 22:31N 49°10' W 123°55'0 0.0
2014-Apr-16 21:31N 49°10' W 123°55'0 0.0
2014-Apr-16 20:31N 49°10' W 123°55'0 0.0
2014-Apr-16 19:31N 49°10' W 123°55'0 0.0
2014-Apr-16 18:28N 49°10' W 123°55'0 0.0
2014-Apr-16 17:31N 49°10' W 123°55'0 0.0
2014-Apr-16 16:31N 49°10' W 123°55'0 0.0
2014-Apr-16 15:31N 49°10' W 123°55'0 0.0
2014-Apr-16 14:31N 49°10' W 123°55'0 0.0
2014-Apr-16 13:28N 49°10' W 123°55'0 0.0
2014-Apr-16 12:31N 49°10' W 123°55'0 0.0
2014-Apr-16 11:31N 49°10' W 123°55'0 0.0
2014-Apr-16 10:31N 49°10' W 123°55'0 0.0
2014-Apr-16 09:31N 49°10' W 123°55'0 0.0
2014-Apr-16 08:31N 49°10' W 123°55'0 0.0
2014-Apr-16 07:31N 49°10' W 123°55'0 0.0
2014-Apr-16 06:31N 49°10' W 123°55'0 0.0
2014-Apr-16 05:31N 49°10' W 123°55'0 0.0
2014-Apr-16 04:31N 49°10' W 123°55'0 0.0
2014-Apr-16 03:31N 49°10' W 123°55'0 0.0
2014-Apr-16 02:31N 49°10' W 123°55'0 0.0
2014-Apr-16 01:31N 49°10' W 123°55'0 0.0
2014-Apr-16 00:31N 49°10' W 123°55'0 0.0
2014-Apr-15 23:31N 49°10' W 123°55'0 0.0
2014-Apr-15 22:31N 49°10' W 123°55'0 0.0
2014-Apr-15 21:31N 49°10' W 123°55'0 0.0
2014-Apr-15 20:31N 49°10' W 123°55'0 0.0
2014-Apr-15 19:31N 49°10' W 123°55'0 0.0
2014-Apr-15 18:31N 49°10' W 123°55'0 0.0
2014-Apr-15 17:31N 49°10' W 123°55'0 0.0
2014-Apr-15 16:31N 49°10' W 123°55'0 0.0
2014-Apr-15 15:31N 49°10' W 123°55'0 0.0
2014-Apr-15 14:31N 49°10' W 123°55'0 0.0
2014-Apr-15 11:32N 49°10' W 123°55'0 0.0
2014-Apr-15 10:32N 49°10' W 123°55'0 0.0
2014-Apr-15 09:32N 49°10' W 123°55'0 0.0
2014-Apr-15 08:32N 49°10' W 123°55'0 0.0
2014-Apr-15 07:32N 49°10' W 123°55'0 0.0
2014-Apr-15 06:32N 49°10' W 123°55'0 0.0
2014-Apr-15 03:32N 49°10' W 123°55'0 0.0
2014-Apr-15 01:32N 49°10' W 123°55'0 0.0
2014-Apr-15 00:32N 49°10' W 123°55'0 0.0
2014-Apr-14 23:32N 49°10' W 123°55'0 0.0
2014-Apr-14 22:32N 49°10' W 123°55'0 0.0
2014-Apr-14 21:32N 49°10' W 123°55'0 0.0
2014-Apr-14 20:32N 49°10' W 123°55'0 0.0
2014-Apr-14 19:32N 49°10' W 123°55'0 0.0
2014-Apr-14 18:32N 49°10' W 123°55'0 0.0
2014-Apr-14 15:31N 49°10' W 123°55'0 0.0
2014-Apr-14 14:34N 49°10' W 123°55'3 2.6
2014-Apr-14 13:33N 49°12' W 123°53'2512.6
2014-Apr-14 11:34N 49°02' W 123°18'1414.3
2014-Apr-14 10:34N 48°52' W 123°02'1212.0
2014-Apr-14 09:34N 48°42' W 123°14'1514.8
2014-Apr-14 08:34N 48°27' W 123°10'1212.1
2014-Apr-14 07:34N 48°20' W 123°24'8 8.3
2014-Apr-14 06:33N 48°13' W 123°32'9 8.9
2014-Apr-14 05:33N 48°14' W 123°46'9613.7
2014-Apr-13 22:31N 48°28' W 126°09'1212.9
2014-Apr-13 21:33N 48°28' W 126°28'1312.9
2014-Apr-13 20:31N 48°29' W 126°48'1513.1
2014-Apr-13 19:22N 48°29' W 127°10'4113.4
2014-Apr-13 16:17N 48°29' W 128°13'  

Dump ship's entire track history

sailing weather and tide predictions

Eastern Asia — 3FQP2 — position and weather